Time;durP1;ratioP1;P1;durP2;ratioP2;P2;SDS_P1;SDS_P2;PMS_P1;PMS_P2;Temp;Humidity;BMP_temperature;BMP_pressure;BME280_temperature;BME280_humidity;BME280_pressure;Samples;Min_cycle;Max_cycle;Signal;HPM_P1;HPM_P2
2021/07/08 00:00:24;;;;;;;27.45;14.23;;;;;;;15.16;100.00;101757.59;5062446;28;20021;-62
2021/07/08 00:02:51;;;;;;;26.80;13.43;;;;;;;15.15;100.00;101755.81;5061644;28;20036;-62
2021/07/08 00:05:19;;;;;;;24.73;12.30;;;;;;;15.08;100.00;101755.84;5063271;28;20434;-62
2021/07/08 00:07:44;;;;;;;26.20;12.70;;;;;;;15.01;99.91;101749.59;5062170;28;20104;-62
2021/07/08 00:10:16;;;;;;;25.85;12.43;;;;;;;14.95;98.49;101757.59;5062122;28;20035;-62
2021/07/08 00:12:42;;;;;;;26.85;12.93;;;;;;;14.91;98.84;101753.16;5062811;28;20023;-62
2021/07/08 00:15:11;;;;;;;25.30;12.18;;;;;;;14.84;99.71;101754.94;5061664;28;20025;-62
2021/07/08 00:17:37;;;;;;;26.80;12.48;;;;;;;14.91;100.00;101754.06;5063151;28;20021;-62
2021/07/08 00:20:15;;;;;;;24.92;13.25;;;;;;;14.90;100.00;101760.25;5061126;28;20028;-62
2021/07/08 00:22:40;;;;;;;26.90;13.40;;;;;;;14.84;100.00;101754.03;5062633;28;20067;-61
2021/07/08 00:25:10;;;;;;;27.08;13.45;;;;;;;14.80;100.00;101758.47;5061259;28;20053;-61
2021/07/08 00:27:36;;;;;;;29.15;14.82;;;;;;;14.79;100.00;101744.28;5062976;28;20031;-61
2021/07/08 00:30:02;;;;;;;25.80;13.60;;;;;;;14.72;100.00;101738.94;5061055;28;20020;-61
2021/07/08 00:32:28;;;;;;;26.17;13.25;;;;;;;14.67;100.00;101741.59;5064732;28;20472;-64
2021/07/08 00:34:53;;;;;;;25.73;13.05;;;;;;;14.62;100.00;101743.34;5064764;28;20040;-65
2021/07/08 00:37:18;;;;;;;26.38;13.25;;;;;;;14.53;100.00;101746.84;5067074;28;20057;-65
2021/07/08 00:39:44;;;;;;;26.35;13.85;;;;;;;14.54;100.00;101750.41;5065860;28;20115;-64
2021/07/08 00:42:09;;;;;;;27.48;13.82;;;;;;;14.47;100.00;101750.41;5065774;28;20021;-63
2021/07/08 00:44:34;;;;;;;26.25;13.23;;;;;;;14.46;100.00;101758.38;5067088;28;20131;-68
2021/07/08 00:47:00;;;;;;;25.13;12.20;;;;;;;14.44;100.00;101752.16;5064680;28;20037;-68
2021/07/08 00:49:25;;;;;;;24.83;12.07;;;;;;;14.46;100.00;101756.59;5067982;28;20371;-69
2021/07/08 00:51:51;;;;;;;26.50;13.23;;;;;;;14.48;100.00;101757.47;5064757;28;20446;-65
2021/07/08 00:54:16;;;;;;;26.55;13.20;;;;;;;14.50;100.00;101754.81;5066339;28;20166;-68
2021/07/08 00:56:41;;;;;;;29.73;16.70;;;;;;;14.55;100.00;101758.41;5066410;28;20025;-69
2021/07/08 00:59:08;;;;;;;26.70;14.05;;;;;;;14.55;100.00;101753.06;5065146;28;20103;-69
2021/07/08 01:01:35;;;;;;;26.92;13.82;;;;;;;14.47;100.00;101750.41;5067125;28;20020;-64
2021/07/08 01:04:02;;;;;;;27.50;14.68;;;;;;;14.45;100.00;101751.28;5064122;28;20075;-65
2021/07/08 01:06:28;;;;;;;27.10;14.45;;;;;;;14.43;100.00;101756.59;5067821;28;20146;-65
2021/07/08 01:08:54;;;;;;;27.40;14.68;;;;;;;14.46;100.00;101753.94;5063993;28;20151;-70
2021/07/08 01:11:19;;;;;;;29.42;15.88;;;;;;;14.45;100.00;101765.47;5066802;28;20690;-65
2021/07/08 01:13:45;;;;;;;29.88;15.38;;;;;;;14.44;100.00;101765.47;5065531;28;20101;-65
2021/07/08 01:16:11;;;;;;;27.70;15.45;;;;;;;14.49;100.00;101774.34;5065145;28;20021;-63
2021/07/08 01:18:37;;;;;;;31.48;17.23;;;;;;;14.51;100.00;101763.72;5066704;28;20024;-65
2021/07/08 01:21:26;;;;;;;28.13;16.08;;;;;;;14.59;100.00;101770.84;5063989;28;20104;-62
2021/07/08 01:23:53;;;;;;;28.05;14.63;;;;;;;14.71;100.00;101766.44;5064263;28;20025;-63
2021/07/08 01:26:19;;;;;;;30.17;15.50;;;;;;;14.81;100.00;101770.91;5066293;28;20033;-70
2021/07/08 01:28:45;;;;;;;30.50;16.98;;;;;;;14.86;100.00;101768.25;5065179;28;20031;-66
2021/07/08 01:31:10;;;;;;;32.55;17.27;;;;;;;14.83;100.00;101766.47;5047186;28;20136;-66
2021/07/08 01:33:36;;;;;;;33.72;17.48;;;;;;;14.84;100.00;101762.94;5066244;28;20356;-62
2021/07/08 01:36:01;;;;;;;31.40;16.70;;;;;;;14.87;100.00;101756.69;5063688;28;20479;-63
2021/07/08 01:38:27;;;;;;;31.27;16.25;;;;;;;14.86;100.00;101757.59;5066776;28;20033;-67
2021/07/08 01:40:53;;;;;;;31.38;15.90;;;;;;;14.82;100.00;101759.34;5064140;28;20384;-68
2021/07/08 01:43:18;;;;;;;28.50;15.55;;;;;;;14.77;100.00;101761.13;5065690;28;20127;-62
2021/07/08 01:45:44;;;;;;;29.33;16.02;;;;;;;14.78;100.00;101757.56;5065129;28;20396;-62
2021/07/08 01:48:09;;;;;;;28.73;16.13;;;;;;;14.80;100.00;101759.34;5064392;28;20439;-63
2021/07/08 01:50:35;;;;;;;31.23;16.63;;;;;;;14.85;100.00;101750.50;5066169;28;20028;-66
2021/07/08 01:53:00;;;;;;;31.45;17.25;;;;;;;14.77;100.00;101745.16;5063362;28;20383;-66
2021/07/08 01:55:26;;;;;;;31.85;17.25;;;;;;;14.79;100.00;101743.38;5067504;28;20021;-65
2021/07/08 01:57:56;;;;;;;30.50;17.75;;;;;;;14.71;100.00;101742.47;5065964;28;20025;-65
2021/07/08 02:00:24;;;;;;;32.60;16.63;;;;;;;14.69;100.00;101749.59;5063872;28;20037;-67
2021/07/08 02:02:51;;;;;;;36.33;18.10;;;;;;;14.67;100.00;101746.03;5065416;28;20025;-65
2021/07/08 02:05:17;;;;;;;31.95;17.52;;;;;;;14.67;100.00;101746.91;5064362;28;20033;-63
2021/07/08 02:07:42;;;;;;;31.77;17.27;;;;;;;14.72;100.00;101738.94;5064354;28;20027;-65
2021/07/08 02:10:10;;;;;;;33.63;18.38;;;;;;;14.73;100.00;101741.59;5065245;28;20050;-65
2021/07/08 02:12:36;;;;;;;29.88;17.52;;;;;;;14.64;100.00;101737.16;5063512;28;20078;-67
2021/07/08 02:15:03;;;;;;;34.45;18.23;;;;;;;14.56;100.00;101746.88;5065982;28;20037;-67
2021/07/08 02:17:28;;;;;;;32.03;18.63;;;;;;;14.47;100.00;101749.50;5062764;28;20075;-66
2021/07/08 02:19:53;;;;;;;31.52;18.25;;;;;;;14.40;100.00;101737.06;5065941;28;20028;-68
2021/07/08 02:22:19;;;;;;;34.03;19.13;;;;;;;14.30;100.00;101753.00;5063384;28;20020;-71
2021/07/08 02:24:44;;;;;;;35.10;19.63;;;;;;;14.24;100.00;101747.69;5064408;28;20072;-65
2021/07/08 02:27:10;;;;;;;32.72;18.40;;;;;;;14.17;100.00;101751.19;5064952;28;20052;-70
2021/07/08 02:29:35;;;;;;;30.75;18.00;;;;;;;14.16;100.00;101754.72;5063171;28;20028;-63
2021/07/08 02:32:00;;;;;;;31.75;17.70;;;;;;;14.17;100.00;101751.19;5066159;28;20069;-62
2021/07/08 02:34:26;;;;;;;31.75;17.73;;;;;;;14.23;100.00;101753.00;5062319;28;20048;-63
2021/07/08 02:36:51;;;;;;;32.50;18.52;;;;;;;14.31;100.00;101751.22;5065019;28;20028;-63
2021/07/08 02:39:16;;;;;;;30.90;18.33;;;;;;;14.35;100.00;101757.47;5063678;28;20119;-63
2021/07/08 02:41:42;;;;;;;32.95;18.88;;;;;;;14.37;100.00;101748.59;5063681;28;20051;-63
2021/07/08 02:44:07;;;;;;;32.15;18.25;;;;;;;14.37;100.00;101753.94;5064585;28;20040;-63
2021/07/08 02:46:32;;;;;;;31.98;18.90;;;;;;;14.39;100.00;101746.81;5062518;28;20083;-64
2021/07/08 02:48:58;;;;;;;31.65;17.90;;;;;;;14.44;100.00;101755.69;5065869;28;20064;-63
2021/07/08 02:51:23;;;;;;;34.13;19.30;;;;;;;14.45;100.00;101752.16;5062420;28;20029;-63
2021/07/08 02:53:49;;;;;;;33.45;20.30;;;;;;;14.44;100.00;101749.50;5064354;28;20036;-63
2021/07/08 02:56:14;;;;;;;34.83;19.85;;;;;;;14.43;100.00;101753.03;5062934;28;20475;-62
2021/07/08 02:58:39;;;;;;;34.47;19.33;;;;;;;14.45;100.00;101765.47;5063168;28;20120;-64
2021/07/08 03:01:05;;;;;;;33.35;19.52;;;;;;;14.53;100.00;101770.78;5064858;28;20028;-62
2021/07/08 03:03:30;;;;;;;34.95;19.70;;;;;;;14.57;100.00;101775.25;5062027;28;20376;-62
2021/07/08 03:05:56;;;;;;;34.05;19.35;;;;;;;14.62;100.00;101762.88;5065060;28;20393;-62
2021/07/08 03:08:21;;;;;;;34.97;19.88;;;;;;;14.70;100.00;101754.91;5062371;28;20024;-62
2021/07/08 03:10:46;;;;;;;35.20;20.58;;;;;;;14.76;100.00;101760.22;5063512;28;20074;-68
2021/07/08 03:13:12;;;;;;;35.03;20.10;;;;;;;14.85;100.00;101766.47;5045957;28;20395;-67
2021/07/08 03:15:38;;;;;;;35.03;20.33;;;;;;;14.91;100.00;101767.38;5062387;28;20380;-69
2021/07/08 03:18:04;;;;;;;36.65;20.77;;;;;;;14.90;100.00;101770.91;5064617;28;20104;-69
2021/07/08 03:20:35;;;;;;;36.13;20.00;;;;;;;14.85;100.00;101766.47;5061785;28;20032;-69
2021/07/08 03:23:03;;;;;;;34.95;20.42;;;;;;;14.81;100.00;101770.91;5061439;28;20029;-68
2021/07/08 03:25:30;;;;;;;35.25;20.23;;;;;;;14.82;100.00;101778.00;5061420;28;20037;-68
2021/07/08 03:27:56;;;;;;;34.60;20.60;;;;;;;14.85;100.00;101778.00;5064611;28;20487;-68
2021/07/08 03:30:23;;;;;;;35.05;20.65;;;;;;;14.88;100.00;101778.03;5062142;28;20037;-68
2021/07/08 03:32:50;;;;;;;37.03;20.55;;;;;;;14.93;100.00;101773.56;5063865;28;20061;-69
2021/07/08 03:35:15;;;;;;;32.58;19.88;;;;;;;14.97;100.00;101770.03;5062903;28;20032;-68
2021/07/08 03:37:42;;;;;;;33.67;20.25;;;;;;;14.92;100.00;101776.22;5062364;28;20025;-67
2021/07/08 03:40:11;;;;;;;33.42;20.58;;;;;;;14.89;100.00;101784.22;5063588;28;20154;-68
2021/07/08 03:42:36;;;;;;;35.55;20.67;;;;;;;14.90;100.00;101781.56;5061723;28;20064;-65
2021/07/08 03:45:06;;;;;;;36.08;19.92;;;;;;;14.94;100.00;101779.78;5064307;28;20130;-65
2021/07/08 03:47:32;;;;;;;36.17;21.00;;;;;;;14.93;100.00;101780.69;5060869;28;20029;-64
2021/07/08 03:49:58;;;;;;;35.75;20.38;;;;;;;14.91;100.00;101777.13;5064704;28;20027;-65
2021/07/08 03:52:23;;;;;;;35.95;21.42;;;;;;;14.90;100.00;101776.22;5061450;28;20032;-66
2021/07/08 03:54:48;;;;;;;36.28;21.23;;;;;;;14.84;100.00;101770.00;5063045;28;20029;-64
2021/07/08 03:57:14;;;;;;;36.58;21.55;;;;;;;14.80;100.00;101771.78;5063166;28;20056;-65
2021/07/08 03:59:39;;;;;;;37.00;21.50;;;;;;;14.82;100.00;101767.34;5062042;28;20483;-69
2021/07/08 04:02:05;;;;;;;37.90;22.40;;;;;;;14.76;100.00;101780.66;5064175;28;20111;-66
2021/07/08 04:04:31;;;;;;;38.67;22.58;;;;;;;14.71;100.00;101775.31;5061244;28;20021;-66
2021/07/08 04:06:56;;;;;;;39.22;22.65;;;;;;;14.63;100.00;101767.34;5064100;28;20060;-62
2021/07/08 04:09:21;;;;;;;37.70;22.35;;;;;;;14.61;100.00;101763.75;5061741;28;20052;-62
2021/07/08 04:11:47;;;;;;;37.50;22.52;;;;;;;14.63;100.00;101774.41;5063089;28;20473;-63
2021/07/08 04:14:12;;;;;;;37.22;22.92;;;;;;;14.62;100.00;101776.19;5062768;28;20017;-63
2021/07/08 04:16:38;;;;;;;38.40;23.15;;;;;;;14.62;100.00;101777.94;5061343;28;20055;-63
2021/07/08 04:19:03;;;;;;;38.50;22.63;;;;;;;14.59;100.00;101781.47;5064497;28;20017;-62
2021/07/08 04:21:29;;;;;;;36.78;22.58;;;;;;;14.48;100.00;101783.22;5060742;28;20468;-65
2021/07/08 04:23:54;;;;;;;36.70;22.42;;;;;;;14.48;100.00;101783.22;5063905;28;20375;-65
2021/07/08 04:26:20;;;;;;;36.92;21.95;;;;;;;14.51;100.00;101788.53;5061646;28;20068;-62
2021/07/08 04:28:45;;;;;;;37.50;22.35;;;;;;;14.59;100.00;101786.78;5062444;28;20029;-65
2021/07/08 04:31:15;;;;;;;36.42;21.33;;;;;;;14.67;100.00;101789.50;5063123;28;20521;-65
2021/07/08 04:33:40;;;;;;;36.22;22.40;;;;;;;14.80;100.00;101801.06;5061746;28;20088;-66
2021/07/08 04:36:06;;;;;;;37.35;23.45;;;;;;;14.92;100.00;101789.53;5063559;28;20079;-68
2021/07/08 04:38:31;;;;;;;38.20;22.65;;;;;;;15.06;100.00;101792.25;5060641;28;20029;-70
2021/07/08 04:40:57;;;;;;;38.22;23.13;;;;;;;15.26;100.00;101790.47;5063716;28;20104;-67
2021/07/08 04:43:22;;;;;;;38.17;22.45;;;;;;;15.34;100.00;101795.78;5061179;28;20500;-70
2021/07/08 04:45:51;;;;;;;36.67;22.35;;;;;;;15.38;100.00;101802.88;5062839;28;20059;-70
2021/07/08 04:48:17;;;;;;;40.67;23.75;;;;;;;15.39;100.00;101807.34;5061986;28;20056;-65
2021/07/08 04:50:43;;;;;;;38.65;23.33;;;;;;;15.43;100.00;101810.88;5044029;28;20416;-63
2021/07/08 04:53:09;;;;;;;37.20;22.05;;;;;;;15.51;100.00;101803.78;5063076;28;20527;-63
2021/07/08 04:55:34;;;;;;;36.15;22.80;;;;;;;15.54;100.00;101809.09;5060404;28;20131;-63
2021/07/08 04:57:59;;;;;;;38.35;22.45;;;;;;;15.56;100.00;101823.28;5063845;28;20479;-63
2021/07/08 05:00:25;;;;;;;38.72;23.02;;;;;;;15.53;100.00;101820.63;5061139;28;20104;-62
2021/07/08 05:02:51;;;;;;;38.28;22.70;;;;;;;15.54;100.00;101822.41;5062672;28;20464;-62
2021/07/08 05:05:17;;;;;;;39.05;22.90;;;;;;;15.54;100.00;101830.41;5061808;28;20060;-63
2021/07/08 05:07:43;;;;;;;36.15;22.80;;;;;;;15.56;100.00;101825.06;5061820;28;20049;-64
2021/07/08 05:10:13;;;;;;;38.08;22.65;;;;;;;15.74;100.00;101833.06;5062952;28;20034;-63
2021/07/08 05:12:39;;;;;;;38.75;23.35;;;;;;;15.90;100.00;101833.97;5060876;28;20032;-63
2021/07/08 05:15:09;;;;;;;38.22;23.45;;;;;;;16.04;97.93;101836.56;5063672;28;20032;-62
2021/07/08 05:17:35;;;;;;;36.63;22.50;;;;;;;16.19;95.40;101835.63;5060295;28;20057;-63
2021/07/08 05:20:01;;;;;;;36.13;23.38;;;;;;;16.26;93.63;101834.72;5066584;28;20063;-62
2021/07/08 05:22:26;;;;;;;40.47;24.10;;;;;;;16.21;93.59;101840.06;5064245;28;20032;-63
2021/07/08 05:24:52;;;;;;;38.95;23.75;;;;;;;16.19;95.03;101846.31;5066540;28;20025;-63
2021/07/08 05:27:17;;;;;;;37.92;22.88;;;;;;;16.21;95.03;101841.88;5064755;28;20028;-63
2021/07/08 05:29:47;;;;;;;38.88;24.02;;;;;;;16.23;95.07;101840.06;5065129;28;20032;-63
2021/07/08 05:32:15;;;;;;;37.22;23.60;;;;;;;16.19;94.98;101835.63;5068520;28;20388;-64
2021/07/08 05:34:41;;;;;;;36.15;23.30;;;;;;;16.16;96.23;101835.66;5066696;28;20024;-63
2021/07/08 05:37:07;;;;;;;38.50;24.17;;;;;;;16.11;96.03;101837.47;5069238;28;20025;-64
2021/07/08 05:39:32;;;;;;;38.88;24.75;;;;;;;16.06;98.22;101836.56;5069062;28;20352;-63
2021/07/08 05:41:57;;;;;;;40.97;25.38;;;;;;;16.12;98.45;101837.44;5069287;28;20058;-63
2021/07/08 05:44:23;;;;;;;39.25;25.05;;;;;;;16.17;96.97;101840.97;5049752;28;20049;-63
2021/07/08 05:46:48;;;;;;;40.28;26.15;;;;;;;16.19;96.67;101833.88;5067596;28;20541;-64
2021/07/08 05:49:14;;;;;;;40.50;26.45;;;;;;;16.25;96.36;101819.63;5067428;28;20470;-62
2021/07/08 05:51:39;;;;;;;43.05;27.38;;;;;;;16.29;96.98;101823.16;5050918;28;20085;-63
2021/07/08 05:54:04;;;;;;;41.75;27.88;;;;;;;16.34;95.64;101824.03;5065454;28;20498;-64
2021/07/08 05:56:30;;;;;;;43.53;28.80;;;;;;;16.39;95.47;101825.78;5051625;28;20218;-62
2021/07/08 05:58:55;;;;;;;44.38;27.90;;;;;;;16.45;95.93;101832.00;5069735;28;20085;-63
2021/07/08 06:01:21;;;;;;;40.70;27.42;;;;;;;16.50;96.53;101833.75;5071103;28;20106;-63
2021/07/08 06:03:47;;;;;;;42.72;26.67;;;;;;;16.50;95.48;101836.41;5065622;28;20486;-62
2021/07/08 06:06:14;;;;;;;42.47;27.27;;;;;;;16.52;94.59;101845.28;5065788;28;20074;-62
2021/07/08 06:08:42;;;;;;;45.38;29.33;;;;;;;16.51;94.70;101854.22;5066224;28;20136;-62
2021/07/08 06:11:07;;;;;;;39.83;26.80;;;;;;;16.54;94.84;101855.97;5068965;28;20367;-62
2021/07/08 06:13:32;;;;;;;41.35;27.63;;;;;;;16.59;94.87;101853.28;5067248;28;20021;-63
2021/07/08 06:15:58;;;;;;;41.33;28.10;;;;;;;16.63;95.03;101861.28;5065598;28;20109;-64
2021/07/08 06:18:23;;;;;;;41.88;27.17;;;;;;;16.67;92.86;101862.13;5065391;28;20021;-65
2021/07/08 06:20:49;;;;;;;39.08;25.85;;;;;;;16.74;92.73;101867.41;5067501;28;20067;-63
2021/07/08 06:23:15;;;;;;;41.85;27.15;;;;;;;16.79;94.47;101861.16;5067032;28;20372;-63
2021/07/08 06:25:41;;;;;;;41.20;26.23;;;;;;;16.87;93.16;101864.69;5066113;28;20364;-64
2021/07/08 06:28:06;;;;;;;37.15;23.67;;;;;;;16.90;91.96;101862.91;5065446;28;20021;-64
2021/07/08 06:30:31;;;;;;;39.00;23.88;;;;;;;16.97;91.95;101871.78;5063287;28;20033;-63
2021/07/08 06:32:57;;;;;;;36.78;23.35;;;;;;;17.03;89.80;101869.06;5066775;28;20025;-63
2021/07/08 06:35:22;;;;;;;39.92;23.67;;;;;;;17.10;88.78;101867.28;5068796;28;20060;-63
2021/07/08 06:37:48;;;;;;;37.97;23.15;;;;;;;17.16;88.00;101871.69;5067349;28;20116;-63
2021/07/08 06:40:16;;;;;;;37.53;22.48;;;;;;;17.20;87.71;101874.31;5069677;28;20025;-63
2021/07/08 06:42:42;;;;;;;36.10;21.80;;;;;;;17.29;87.39;101888.53;5067700;28;20460;-62
2021/07/08 06:45:11;;;;;;;36.88;21.77;;;;;;;17.37;86.18;101887.56;5064908;28;20045;-63
2021/07/08 06:47:39;;;;;;;37.38;20.92;;;;;;;17.43;84.69;101895.53;5066131;28;20392;-64
2021/07/08 06:50:06;;;;;;;34.78;20.33;;;;;;;17.51;83.99;101889.25;5069639;28;20195;-63
2021/07/08 06:52:31;;;;;;;36.20;20.23;;;;;;;17.60;81.35;101891.81;5064556;28;20029;-63
2021/07/08 06:54:57;;;;;;;35.70;19.45;;;;;;;17.72;80.03;101885.47;5068908;28;20062;-63
2021/07/08 06:57:22;;;;;;;34.10;18.80;;;;;;;17.83;80.78;101894.31;5068206;28;20365;-63
2021/07/08 06:59:48;;;;;;;33.42;18.88;;;;;;;17.92;79.08;101894.25;5068320;28;20483;-63
2021/07/08 07:02:13;;;;;;;33.45;17.80;;;;;;;18.02;79.10;101897.72;5065715;28;20060;-64
2021/07/08 07:04:39;;;;;;;34.00;18.75;;;;;;;18.11;77.78;101897.66;5064546;28;20043;-62
2021/07/08 07:07:05;;;;;;;33.08;17.38;;;;;;;18.15;76.21;101895.81;5065682;28;20109;-65
2021/07/08 07:09:31;;;;;;;31.77;16.48;;;;;;;18.19;76.31;101899.31;5065694;28;20555;-67
2021/07/08 07:11:56;;;;;;;33.38;15.90;;;;;;;18.27;76.52;101894.78;5067403;28;20100;-68
2021/07/08 07:14:21;;;;;;;31.75;15.68;;;;;;;18.39;76.05;101901.78;5066196;28;20027;-68
2021/07/08 07:16:47;;;;;;;30.20;15.68;;;;;;;18.52;74.54;101899.84;5062160;28;20027;-68
2021/07/08 07:19:12;;;;;;;30.08;15.27;;;;;;;18.69;74.06;101900.53;5062789;28;20025;-65
2021/07/08 07:21:38;;;;;;;29.33;14.07;;;;;;;18.87;71.94;101899.41;5063351;28;20062;-66
2021/07/08 07:24:03;;;;;;;31.00;14.25;;;;;;;19.06;71.82;101904.53;5061672;28;20027;-65
2021/07/08 07:26:29;;;;;;;29.02;13.75;;;;;;;19.29;69.86;101901.50;5064269;28;20033;-66
2021/07/08 07:28:54;;;;;;;27.13;12.18;;;;;;;19.43;67.84;101904.00;5061674;28;20025;-66
2021/07/08 07:31:20;;;;;;;27.50;13.18;;;;;;;19.55;67.26;101902.91;5064258;28;20123;-67
2021/07/08 07:33:46;;;;;;;25.35;11.30;;;;;;;19.66;68.05;101903.63;5062536;28;20375;-64
2021/07/08 07:36:12;;;;;;;26.73;11.60;;;;;;;19.68;67.39;101901.78;5063308;28;20025;-66
2021/07/08 07:38:41;;;;;;;26.02;11.75;;;;;;;19.70;68.25;101902.63;5063242;28;20023;-66
2021/07/08 07:41:07;;;;;;;25.35;11.70;;;;;;;19.70;66.82;101905.31;5061943;28;20021;-68
2021/07/08 07:43:33;;;;;;;26.33;12.00;;;;;;;19.82;67.55;101907.84;5063771;28;20514;-66
2021/07/08 07:45:59;;;;;;;24.38;10.82;;;;;;;19.90;67.93;101912.19;5061225;28;20368;-67
2021/07/08 07:48:25;;;;;;;23.70;10.43;;;;;;;19.97;65.29;101905.78;5064591;28;20109;-66
2021/07/08 07:50:50;;;;;;;25.85;10.43;;;;;;;20.16;66.25;101911.72;5061886;28;20025;-68
2021/07/08 07:53:16;;;;;;;24.85;10.50;;;;;;;20.19;63.32;101907.16;5063389;28;20052;-69
2021/07/08 07:55:41;;;;;;;24.55;10.82;;;;;;;20.39;64.44;101919.31;5062546;28;20388;-65
2021/07/08 07:58:07;;;;;;;24.63;10.80;;;;;;;20.61;64.45;101913.50;5062485;28;20033;-66
2021/07/08 08:00:33;;;;;;;25.42;11.10;;;;;;;20.85;62.47;101910.34;5063586;28;20412;-66
2021/07/08 08:02:59;;;;;;;23.02;10.40;;;;;;;21.23;61.24;101905.00;5061020;28;20107;-68
2021/07/08 08:10:36;;;;;;;23.42;8.82;;;;;;;22.15;59.89;101899.13;5061934;28;20466;-61
2021/07/08 08:13:04;;;;;;;22.17;9.05;;;;;;;22.37;57.82;101895.88;5064023;28;20047;-62
2021/07/08 08:15:30;;;;;;;21.40;8.25;;;;;;;22.52;56.22;101894.53;5060840;28;20039;-62
2021/07/08 08:17:55;;;;;;;21.42;9.02;;;;;;;22.62;54.69;101894.22;5064101;28;20024;-62
2021/07/08 08:20:21;;;;;;;23.90;8.63;;;;;;;22.72;56.47;101892.13;5061334;28;20029;-62
2021/07/08 08:22:46;;;;;;;21.73;8.35;;;;;;;22.74;55.33;101895.66;5063073;28;20025;-62
2021/07/08 08:25:12;;;;;;;21.23;8.27;;;;;;;22.69;55.62;101894.91;5062152;28;20024;-62
2021/07/08 08:27:38;;;;;;;22.45;8.18;;;;;;;22.54;55.64;101890.88;5062052;28;20053;-62
2021/07/08 08:30:05;;;;;;;21.52;8.15;;;;;;;22.53;56.73;101899.88;5063390;28;20081;-62
2021/07/08 08:32:30;;;;;;;21.33;7.78;;;;;;;22.48;55.94;101901.81;5060712;28;20468;-62
2021/07/08 08:34:56;;;;;;;21.45;9.10;;;;;;;22.42;56.10;101907.38;5064183;28;20033;-62
2021/07/08 08:37:21;;;;;;;20.67;7.50;;;;;;;22.53;54.04;101896.28;5061063;28;20028;-62
2021/07/08 08:39:47;;;;;;;20.50;7.25;;;;;;;22.68;54.80;101903.91;5062781;28;20028;-63
2021/07/08 08:42:13;;;;;;;20.92;6.90;;;;;;;22.81;53.21;101909.84;5062227;28;20017;-62
2021/07/08 08:44:38;;;;;;;19.85;6.90;;;;;;;22.98;51.70;101914.72;5062982;28;20060;-62
2021/07/08 08:47:10;;;;;;;20.23;7.25;;;;;;;23.24;51.86;101913.03;5063695;28;20037;-62
2021/07/08 08:49:42;;;;;;;19.67;6.73;;;;;;;23.56;52.04;101903.00;5060538;28;20051;-68
2021/07/08 08:52:12;;;;;;;21.75;6.65;;;;;;;23.62;48.63;101909.09;5059865;28;20067;-68
2021/07/08 08:54:40;;;;;;;19.58;6.63;;;;;;;23.79;48.61;101911.19;5062909;28;20083;-69
2021/07/08 08:57:06;;;;;;;19.90;6.47;;;;;;;23.92;48.59;101903.59;5064398;28;20040;-70
2021/07/08 08:59:31;;;;;;;20.42;7.15;;;;;;;23.93;48.87;101899.97;5067494;28;20056;-69
2021/07/08 09:02:10;;;;;;;20.45;7.00;;;;;;;23.98;49.24;101898.00;5065098;28;20024;-69
2021/07/08 09:04:35;;;;;;;22.55;7.50;;;;;;;24.04;47.73;101909.50;5063951;28;20036;-69
2021/07/08 09:07:25;;;;;;;20.15;6.90;;;;;;;24.04;50.32;101914.91;5067413;28;20017;-69
2021/07/08 09:09:56;;;;;;;20.45;7.15;;;;;;;23.77;50.41;101906.81;5065677;28;20021;-67
2021/07/08 09:12:23;;;;;;;20.77;7.00;;;;;;;23.70;49.25;101900.72;5065672;28;20062;-69
2021/07/08 09:14:50;;;;;;;21.00;7.50;;;;;;;23.94;48.43;101908.94;5065331;28;20025;-68
2021/07/08 09:17:21;;;;;;;21.73;6.88;;;;;;;24.28;49.37;101911.31;5066343;28;20430;-66
2021/07/08 09:19:48;;;;;;;20.48;7.00;;;;;;;24.88;47.79;101913.63;5065090;28;20115;-67
2021/07/08 09:22:29;;;;;;;19.70;7.00;;;;;;;25.28;47.67;101922.84;5066166;28;20024;-69
2021/07/08 09:24:55;;;;;;;21.50;7.25;;;;;;;25.66;45.11;101923.13;5066030;28;20168;-69
2021/07/08 09:27:25;;;;;;;21.60;7.75;;;;;;;25.69;45.64;101944.66;5065395;28;20464;-69
2021/07/08 09:29:51;;;;;;;21.67;7.47;;;;;;;25.79;44.53;101952.38;5065373;28;20388;-69
2021/07/08 09:32:22;;;;;;;20.25;7.22;;;;;;;25.94;43.42;101954.44;5065925;28;20024;-69
2021/07/08 09:34:52;;;;;;;20.02;7.30;;;;;;;26.26;42.85;101944.06;5064740;28;20498;-69
2021/07/08 09:37:20;;;;;;;20.13;6.60;;;;;;;26.18;42.40;101938.09;5065964;28;20036;-66
2021/07/08 09:39:54;;;;;;;21.40;6.88;;;;;;;26.18;42.96;101947.09;5064314;28;20017;-68
2021/07/08 09:42:36;;;;;;;17.33;5.10;;;;;;;26.06;43.21;101942.22;5065364;28;20039;-67
2021/07/08 09:45:07;;;;;;;18.20;5.60;;;;;;;25.67;43.00;101945.66;5066352;28;20052;-69
2021/07/08 09:47:33;;;;;;;18.15;5.50;;;;;;;25.29;43.98;101953.50;5063166;28;20041;-69
2021/07/08 09:49:59;;;;;;;18.05;5.15;;;;;;;25.00;43.80;101955.50;5066377;28;20025;-69
2021/07/08 09:52:24;;;;;;;16.63;4.97;;;;;;;24.97;46.20;101966.47;5064645;28;20029;-68
2021/07/08 09:57:35;;;;;;;17.42;5.28;;;;;;;24.70;46.52;101966.56;5065207;28;20035;-69
2021/07/08 10:00:24;;;;;;;18.90;5.72;;;;;;;24.53;48.16;101950.94;5066155;28;20513;-66
2021/07/08 10:02:52;;;;;;;25.90;6.32;;;;;;;24.43;47.62;101957.63;5064405;28;20032;-68
2021/07/08 10:05:18;;;;;;;25.90;5.93;;;;;;;24.44;46.77;101951.28;5064960;28;20499;-67
2021/07/08 10:07:45;;;;;;;20.67;5.50;;;;;;;24.85;46.16;101946.19;5063352;28;20033;-66
2021/07/08 10:10:11;;;;;;;17.73;5.05;;;;;;;25.46;44.73;101934.78;5065861;28;20058;-68
2021/07/08 10:12:38;;;;;;;22.95;4.97;;;;;;;26.32;42.93;101930.22;5062614;28;20068;-69
2021/07/08 10:15:06;;;;;;;16.52;4.68;;;;;;;27.37;40.08;101943.47;5065952;28;20076;-68
2021/07/08 10:17:35;;;;;;;39.25;6.80;;;;;;;28.42;37.64;101941.72;5063140;28;20037;-65
2021/07/08 10:20:03;;;;;;;18.38;5.25;;;;;;;29.20;36.11;101951.97;5065748;28;20101;-63
2021/07/08 10:22:30;;;;;;;18.77;5.20;;;;;;;29.66;34.62;101948.44;5063016;28;20024;-62
2021/07/08 10:24:55;;;;;;;19.85;6.65;;;;;;;29.79;34.13;101945.88;5064740;28;20436;-62
2021/07/08 10:27:21;;;;;;;20.48;6.35;;;;;;;29.81;33.55;101949.38;5064116;28;20028;-63
2021/07/08 10:29:47;;;;;;;20.13;6.22;;;;;;;29.99;34.40;101939.25;5063614;28;20107;-63
2021/07/08 10:32:17;;;;;;;19.00;6.18;;;;;;;30.04;34.02;101942.56;5065595;28;20074;-63
2021/07/08 10:34:43;;;;;;;21.00;6.00;;;;;;;29.97;33.11;101938.44;5062923;28;20083;-63
2021/07/08 10:37:09;;;;;;;19.67;6.03;;;;;;;29.26;35.28;101942.63;5066020;28;20028;-63
2021/07/08 10:39:40;;;;;;;18.73;6.50;;;;;;;28.25;35.95;101941.75;5062441;28;20119;-62
2021/07/08 10:42:06;;;;;;;22.45;6.05;;;;;;;27.72;38.26;101940.84;5062420;28;20024;-62
2021/07/08 10:44:34;;;;;;;21.55;6.47;;;;;;;27.36;38.71;101948.00;5064759;28;20055;-62
2021/07/08 10:47:02;;;;;;;19.25;6.18;;;;;;;26.95;38.63;101945.44;5063015;28;20047;-62
2021/07/08 10:49:40;;;;;;;19.02;6.28;;;;;;;26.62;40.46;101940.63;5064423;28;20017;-62
2021/07/08 10:52:10;;;;;;;18.30;6.20;;;;;;;26.10;41.48;101935.72;5062120;28;20048;-63
2021/07/08 10:54:36;;;;;;;19.38;5.95;;;;;;;26.04;41.58;101936.88;5061841;28;20059;-63
2021/07/08 10:57:03;;;;;;;20.23;6.18;;;;;;;26.02;41.18;101929.75;5064942;28;20111;-63
2021/07/08 10:59:45;;;;;;;19.20;5.80;;;;;;;26.28;41.87;101931.31;5062606;28;20020;-63
2021/07/08 11:02:30;;;;;;;19.30;6.15;;;;;;;26.45;41.59;101920.59;5061961;28;20021;-62
2021/07/08 11:04:56;;;;;;;17.52;5.47;;;;;;;26.84;40.83;101917.94;5062572;28;20052;-63
2021/07/08 11:07:22;;;;;;;19.65;6.20;;;;;;;27.55;38.91;101914.53;5063437;28;20025;-63
2021/07/08 11:09:59;;;;;;;19.58;5.70;;;;;;;28.85;37.39;101914.91;5064117;28;20016;-65
2021/07/08 11:12:32;;;;;;;19.98;5.57;;;;;;;29.44;35.89;101917.03;5063683;28;20063;-64